sensor_id;sensor_type;location;lat;lon;timestamp;temperature;humidity
53599;DHT22;39485;45.702;11.364;2023-01-16T00:00:55;6.10;99.90
53599;DHT22;39485;45.702;11.364;2023-01-16T00:03:21;6.10;99.90
53599;DHT22;39485;45.702;11.364;2023-01-16T00:05:46;6.10;99.90
53599;DHT22;39485;45.702;11.364;2023-01-16T00:08:12;6.10;99.90
53599;DHT22;39485;45.702;11.364;2023-01-16T00:10:38;6.10;99.90
53599;DHT22;39485;45.702;11.364;2023-01-16T00:13:04;6.10;99.90
53599;DHT22;39485;45.702;11.364;2023-01-16T00:15:30;6.10;99.90
53599;DHT22;39485;45.702;11.364;2023-01-16T00:17:56;6.10;99.90
53599;DHT22;39485;45.702;11.364;2023-01-16T00:20:22;6.10;99.90
53599;DHT22;39485;45.702;11.364;2023-01-16T00:22:47;6.10;99.90
53599;DHT22;39485;45.702;11.364;2023-01-16T00:25:13;6.00;99.90
53599;DHT22;39485;45.702;11.364;2023-01-16T00:27:39;6.00;99.90
53599;DHT22;39485;45.702;11.364;2023-01-16T00:30:05;6.00;99.90
53599;DHT22;39485;45.702;11.364;2023-01-16T00:32:32;6.00;99.90
53599;DHT22;39485;45.702;11.364;2023-01-16T00:34:57;6.00;99.90
53599;DHT22;39485;45.702;11.364;2023-01-16T00:37:23;6.00;99.90
53599;DHT22;39485;45.702;11.364;2023-01-16T00:39:49;5.90;99.90
53599;DHT22;39485;45.702;11.364;2023-01-16T00:42:17;5.90;99.90
53599;DHT22;39485;45.702;11.364;2023-01-16T00:44:43;5.90;99.90
53599;DHT22;39485;45.702;11.364;2023-01-16T00:47:08;5.90;99.90
53599;DHT22;39485;45.702;11.364;2023-01-16T00:49:36;6.00;99.90
53599;DHT22;39485;45.702;11.364;2023-01-16T00:52:03;5.90;99.90
53599;DHT22;39485;45.702;11.364;2023-01-16T00:54:29;5.90;99.90
53599;DHT22;39485;45.702;11.364;2023-01-16T00:56:54;5.90;99.90
53599;DHT22;39485;45.702;11.364;2023-01-16T00:59:20;5.90;99.90
53599;DHT22;39485;45.702;11.364;2023-01-16T01:01:46;6.00;99.90
53599;DHT22;39485;45.702;11.364;2023-01-16T01:04:11;6.00;99.90
53599;DHT22;39485;45.702;11.364;2023-01-16T01:06:38;6.00;99.90
53599;DHT22;39485;45.702;11.364;2023-01-16T01:09:04;6.00;99.90
53599;DHT22;39485;45.702;11.364;2023-01-16T01:11:30;6.00;99.90
53599;DHT22;39485;45.702;11.364;2023-01-16T01:13:56;5.90;99.90
53599;DHT22;39485;45.702;11.364;2023-01-16T01:16:22;5.90;99.90
53599;DHT22;39485;45.702;11.364;2023-01-16T01:18:48;5.90;99.90
53599;DHT22;39485;45.702;11.364;2023-01-16T01:21:27;5.90;99.90
53599;DHT22;39485;45.702;11.364;2023-01-16T01:23:55;5.90;99.90
53599;DHT22;39485;45.702;11.364;2023-01-16T01:26:21;5.90;99.90
53599;DHT22;39485;45.702;11.364;2023-01-16T01:28:47;5.90;99.90
53599;DHT22;39485;45.702;11.364;2023-01-16T01:31:13;5.90;99.90
53599;DHT22;39485;45.702;11.364;2023-01-16T01:33:39;5.80;99.90
53599;DHT22;39485;45.702;11.364;2023-01-16T01:36:06;5.80;99.90
53599;DHT22;39485;45.702;11.364;2023-01-16T01:38:32;5.80;99.90
53599;DHT22;39485;45.702;11.364;2023-01-16T01:40:58;5.80;99.90
53599;DHT22;39485;45.702;11.364;2023-01-16T01:43:46;5.80;99.90
53599;DHT22;39485;45.702;11.364;2023-01-16T01:49:05;5.70;99.90
53599;DHT22;39485;45.702;11.364;2023-01-16T01:51:36;5.70;99.90
53599;DHT22;39485;45.702;11.364;2023-01-16T01:54:14;5.70;99.90
53599;DHT22;39485;45.702;11.364;2023-01-16T01:59:18;5.70;99.90
53599;DHT22;39485;45.702;11.364;2023-01-16T02:01:46;5.70;99.90
53599;DHT22;39485;45.702;11.364;2023-01-16T02:04:20;5.70;99.90
53599;DHT22;39485;45.702;11.364;2023-01-16T02:06:51;5.70;99.90
53599;DHT22;39485;45.702;11.364;2023-01-16T02:09:19;5.70;99.90
53599;DHT22;39485;45.702;11.364;2023-01-16T02:11:48;5.70;99.90
53599;DHT22;39485;45.702;11.364;2023-01-16T02:14:17;5.70;99.90
53599;DHT22;39485;45.702;11.364;2023-01-16T02:16:43;5.70;99.90
53599;DHT22;39485;45.702;11.364;2023-01-16T02:20:11;5.70;99.90
53599;DHT22;39485;45.702;11.364;2023-01-16T02:38:21;5.80;99.90
53599;DHT22;39485;45.702;11.364;2023-01-16T02:41:34;5.80;99.90
53599;DHT22;39485;45.702;11.364;2023-01-16T02:46:58;5.80;99.90
53599;DHT22;39485;45.702;11.364;2023-01-16T02:49:40;5.80;99.90
53599;DHT22;39485;45.702;11.364;2023-01-16T02:52:21;5.80;99.90
53599;DHT22;39485;45.702;11.364;2023-01-16T02:55:01;5.80;99.90
53599;DHT22;39485;45.702;11.364;2023-01-16T02:57:38;5.80;99.90
53599;DHT22;39485;45.702;11.364;2023-01-16T03:00:06;5.80;99.90
53599;DHT22;39485;45.702;11.364;2023-01-16T03:02:32;5.80;99.90
53599;DHT22;39485;45.702;11.364;2023-01-16T03:04:58;5.80;99.90
53599;DHT22;39485;45.702;11.364;2023-01-16T03:10:49;5.80;99.90
53599;DHT22;39485;45.702;11.364;2023-01-16T03:24:06;5.80;99.90
53599;DHT22;39485;45.702;11.364;2023-01-16T03:26:43;5.80;99.90
53599;DHT22;39485;45.702;11.364;2023-01-16T03:34:40;5.80;99.90
53599;DHT22;39485;45.702;11.364;2023-01-16T03:37:10;5.80;99.90
53599;DHT22;39485;45.702;11.364;2023-01-16T03:39:41;5.80;99.90
53599;DHT22;39485;45.702;11.364;2023-01-16T03:42:12;5.80;99.90
53599;DHT22;39485;45.702;11.364;2023-01-16T03:44:43;5.80;99.90
53599;DHT22;39485;45.702;11.364;2023-01-16T03:47:13;5.70;99.90
53599;DHT22;39485;45.702;11.364;2023-01-16T03:49:44;5.70;99.90
53599;DHT22;39485;45.702;11.364;2023-01-16T03:52:12;5.70;99.90
53599;DHT22;39485;45.702;11.364;2023-01-16T03:54:54;5.70;99.90
53599;DHT22;39485;45.702;11.364;2023-01-16T03:57:33;5.70;99.90
53599;DHT22;39485;45.702;11.364;2023-01-16T04:00:01;5.70;99.90
53599;DHT22;39485;45.702;11.364;2023-01-16T04:02:30;5.70;99.90
53599;DHT22;39485;45.702;11.364;2023-01-16T04:07:48;5.70;99.90
53599;DHT22;39485;45.702;11.364;2023-01-16T04:10:21;5.70;99.90
53599;DHT22;39485;45.702;11.364;2023-01-16T04:12:52;5.70;99.90
53599;DHT22;39485;45.702;11.364;2023-01-16T04:15:21;5.70;99.90
53599;DHT22;39485;45.702;11.364;2023-01-16T04:17:48;5.70;99.90
53599;DHT22;39485;45.702;11.364;2023-01-16T04:20:15;5.70;99.90
53599;DHT22;39485;45.702;11.364;2023-01-16T04:22:41;5.70;99.90
53599;DHT22;39485;45.702;11.364;2023-01-16T04:25:08;5.80;99.90
53599;DHT22;39485;45.702;11.364;2023-01-16T04:27:34;5.80;99.90
53599;DHT22;39485;45.702;11.364;2023-01-16T04:30:00;5.70;99.90
53599;DHT22;39485;45.702;11.364;2023-01-16T04:32:26;5.80;99.90
53599;DHT22;39485;45.702;11.364;2023-01-16T04:34:51;5.80;99.90
53599;DHT22;39485;45.702;11.364;2023-01-16T04:37:17;5.80;99.90
53599;DHT22;39485;45.702;11.364;2023-01-16T04:39:43;5.80;99.90
53599;DHT22;39485;45.702;11.364;2023-01-16T04:42:10;5.80;99.90
53599;DHT22;39485;45.702;11.364;2023-01-16T04:44:36;5.80;99.90
53599;DHT22;39485;45.702;11.364;2023-01-16T04:47:02;5.80;99.90
53599;DHT22;39485;45.702;11.364;2023-01-16T04:49:27;5.80;99.90
53599;DHT22;39485;45.702;11.364;2023-01-16T04:51:54;5.80;99.90
53599;DHT22;39485;45.702;11.364;2023-01-16T04:54:20;5.80;99.90
53599;DHT22;39485;45.702;11.364;2023-01-16T04:56:46;5.70;99.90
53599;DHT22;39485;45.702;11.364;2023-01-16T04:59:12;5.70;99.90
53599;DHT22;39485;45.702;11.364;2023-01-16T05:01:41;5.70;99.90
53599;DHT22;39485;45.702;11.364;2023-01-16T05:04:08;5.70;99.90
53599;DHT22;39485;45.702;11.364;2023-01-16T05:06:35;5.70;99.90
53599;DHT22;39485;45.702;11.364;2023-01-16T05:09:02;5.70;99.90
53599;DHT22;39485;45.702;11.364;2023-01-16T05:11:28;5.70;99.90
53599;DHT22;39485;45.702;11.364;2023-01-16T05:13:54;5.60;99.90
53599;DHT22;39485;45.702;11.364;2023-01-16T05:16:20;5.60;99.90
53599;DHT22;39485;45.702;11.364;2023-01-16T05:18:46;5.60;99.90
53599;DHT22;39485;45.702;11.364;2023-01-16T05:21:11;5.60;99.90
53599;DHT22;39485;45.702;11.364;2023-01-16T05:23:37;5.60;99.90
53599;DHT22;39485;45.702;11.364;2023-01-16T05:26:04;5.60;99.90
53599;DHT22;39485;45.702;11.364;2023-01-16T05:28:30;5.60;99.90
53599;DHT22;39485;45.702;11.364;2023-01-16T05:30:57;5.60;99.90
53599;DHT22;39485;45.702;11.364;2023-01-16T05:33:23;5.60;99.90
53599;DHT22;39485;45.702;11.364;2023-01-16T05:35:49;5.60;99.90
53599;DHT22;39485;45.702;11.364;2023-01-16T05:38:16;5.60;99.90
53599;DHT22;39485;45.702;11.364;2023-01-16T05:40:43;5.60;99.90
53599;DHT22;39485;45.702;11.364;2023-01-16T05:43:09;5.50;99.90
53599;DHT22;39485;45.702;11.364;2023-01-16T05:45:35;5.60;99.90
53599;DHT22;39485;45.702;11.364;2023-01-16T05:48:00;5.60;99.90
53599;DHT22;39485;45.702;11.364;2023-01-16T05:50:26;5.60;99.90
53599;DHT22;39485;45.702;11.364;2023-01-16T05:52:52;5.60;99.90
53599;DHT22;39485;45.702;11.364;2023-01-16T05:55:17;5.60;99.90
53599;DHT22;39485;45.702;11.364;2023-01-16T05:57:43;5.60;99.90
53599;DHT22;39485;45.702;11.364;2023-01-16T06:00:09;5.60;99.90
53599;DHT22;39485;45.702;11.364;2023-01-16T06:02:35;5.60;99.90
53599;DHT22;39485;45.702;11.364;2023-01-16T06:05:02;5.60;99.90
53599;DHT22;39485;45.702;11.364;2023-01-16T06:07:27;5.60;99.90
53599;DHT22;39485;45.702;11.364;2023-01-16T06:09:53;5.60;99.90
53599;DHT22;39485;45.702;11.364;2023-01-16T06:12:19;5.70;99.90
53599;DHT22;39485;45.702;11.364;2023-01-16T06:14:45;5.70;99.90
53599;DHT22;39485;45.702;11.364;2023-01-16T06:17:12;5.70;99.90
53599;DHT22;39485;45.702;11.364;2023-01-16T06:19:40;5.70;99.90
53599;DHT22;39485;45.702;11.364;2023-01-16T06:22:06;5.70;99.90
53599;DHT22;39485;45.702;11.364;2023-01-16T06:24:32;5.70;99.90
53599;DHT22;39485;45.702;11.364;2023-01-16T06:26:58;5.80;99.90
53599;DHT22;39485;45.702;11.364;2023-01-16T06:29:23;5.80;99.90
53599;DHT22;39485;45.702;11.364;2023-01-16T06:31:49;5.80;99.90
53599;DHT22;39485;45.702;11.364;2023-01-16T06:34:15;5.80;99.90
53599;DHT22;39485;45.702;11.364;2023-01-16T06:36:40;5.80;99.90
53599;DHT22;39485;45.702;11.364;2023-01-16T06:39:07;5.80;99.90
53599;DHT22;39485;45.702;11.364;2023-01-16T06:41:33;5.70;99.90
53599;DHT22;39485;45.702;11.364;2023-01-16T06:43:58;5.70;99.90
53599;DHT22;39485;45.702;11.364;2023-01-16T06:46:24;5.70;99.90
53599;DHT22;39485;45.702;11.364;2023-01-16T06:48:50;5.70;99.90
53599;DHT22;39485;45.702;11.364;2023-01-16T06:51:15;5.70;99.90
53599;DHT22;39485;45.702;11.364;2023-01-16T06:53:41;5.60;99.90
53599;DHT22;39485;45.702;11.364;2023-01-16T06:56:07;5.60;99.90
53599;DHT22;39485;45.702;11.364;2023-01-16T06:58:32;5.60;99.90
53599;DHT22;39485;45.702;11.364;2023-01-16T07:00:58;5.60;99.90
53599;DHT22;39485;45.702;11.364;2023-01-16T07:03:24;5.60;99.90
53599;DHT22;39485;45.702;11.364;2023-01-16T07:05:50;5.60;99.90
53599;DHT22;39485;45.702;11.364;2023-01-16T07:08:16;5.50;99.90
53599;DHT22;39485;45.702;11.364;2023-01-16T07:10:41;5.60;99.90
53599;DHT22;39485;45.702;11.364;2023-01-16T07:13:07;5.50;99.90
53599;DHT22;39485;45.702;11.364;2023-01-16T07:15:35;5.60;99.90
53599;DHT22;39485;45.702;11.364;2023-01-16T07:18:20;5.50;99.90
53599;DHT22;39485;45.702;11.364;2023-01-16T07:21:05;5.50;99.90
53599;DHT22;39485;45.702;11.364;2023-01-16T07:24:05;5.50;99.90
53599;DHT22;39485;45.702;11.364;2023-01-16T07:26:33;5.50;99.90
53599;DHT22;39485;45.702;11.364;2023-01-16T07:28:59;5.60;99.90
53599;DHT22;39485;45.702;11.364;2023-01-16T07:31:27;5.60;99.90
53599;DHT22;39485;45.702;11.364;2023-01-16T07:33:53;5.60;99.90
53599;DHT22;39485;45.702;11.364;2023-01-16T07:36:19;5.60;99.90
53599;DHT22;39485;45.702;11.364;2023-01-16T07:38:45;5.60;99.90
53599;DHT22;39485;45.702;11.364;2023-01-16T07:41:10;5.60;99.90
53599;DHT22;39485;45.702;11.364;2023-01-16T07:43:36;5.60;99.90
53599;DHT22;39485;45.702;11.364;2023-01-16T07:46:02;5.60;99.90
53599;DHT22;39485;45.702;11.364;2023-01-16T07:48:28;5.70;99.90
53599;DHT22;39485;45.702;11.364;2023-01-16T07:50:55;5.60;99.90
53599;DHT22;39485;45.702;11.364;2023-01-16T07:53:23;5.70;99.90
53599;DHT22;39485;45.702;11.364;2023-01-16T07:55:52;5.70;99.90
53599;DHT22;39485;45.702;11.364;2023-01-16T07:58:18;5.70;99.90
53599;DHT22;39485;45.702;11.364;2023-01-16T08:00:44;5.70;99.90
53599;DHT22;39485;45.702;11.364;2023-01-16T08:03:11;5.70;99.90
53599;DHT22;39485;45.702;11.364;2023-01-16T08:05:37;5.70;99.90
53599;DHT22;39485;45.702;11.364;2023-01-16T08:08:03;5.70;99.90
53599;DHT22;39485;45.702;11.364;2023-01-16T08:10:29;5.70;99.90
53599;DHT22;39485;45.702;11.364;2023-01-16T08:12:55;5.70;99.90
53599;DHT22;39485;45.702;11.364;2023-01-16T08:15:21;5.70;99.90
53599;DHT22;39485;45.702;11.364;2023-01-16T08:17:46;5.70;99.90
53599;DHT22;39485;45.702;11.364;2023-01-16T08:20:12;5.70;99.90
53599;DHT22;39485;45.702;11.364;2023-01-16T08:22:45;5.70;99.90
53599;DHT22;39485;45.702;11.364;2023-01-16T08:25:12;5.70;99.90
53599;DHT22;39485;45.702;11.364;2023-01-16T08:27:38;5.80;99.90
53599;DHT22;39485;45.702;11.364;2023-01-16T08:30:05;5.70;99.90
53599;DHT22;39485;45.702;11.364;2023-01-16T08:32:31;5.80;99.90
53599;DHT22;39485;45.702;11.364;2023-01-16T08:34:57;5.80;99.90
53599;DHT22;39485;45.702;11.364;2023-01-16T08:37:22;5.80;99.90
53599;DHT22;39485;45.702;11.364;2023-01-16T08:39:48;5.80;99.90
53599;DHT22;39485;45.702;11.364;2023-01-16T08:42:14;5.90;99.90
53599;DHT22;39485;45.702;11.364;2023-01-16T08:44:58;5.80;99.90
53599;DHT22;39485;45.702;11.364;2023-01-16T08:47:42;5.80;99.90
53599;DHT22;39485;45.702;11.364;2023-01-16T08:50:27;5.80;99.90
53599;DHT22;39485;45.702;11.364;2023-01-16T08:53:11;5.80;99.90
53599;DHT22;39485;45.702;11.364;2023-01-16T08:55:37;5.80;99.90
53599;DHT22;39485;45.702;11.364;2023-01-16T08:58:05;5.80;99.90
53599;DHT22;39485;45.702;11.364;2023-01-16T09:00:31;5.80;99.90
53599;DHT22;39485;45.702;11.364;2023-01-16T09:02:56;5.80;99.90
53599;DHT22;39485;45.702;11.364;2023-01-16T09:05:25;5.80;99.90
53599;DHT22;39485;45.702;11.364;2023-01-16T09:07:51;5.90;99.90
53599;DHT22;39485;45.702;11.364;2023-01-16T09:10:17;5.90;99.90
53599;DHT22;39485;45.702;11.364;2023-01-16T09:12:42;5.90;99.90
53599;DHT22;39485;45.702;11.364;2023-01-16T09:15:27;5.90;99.90
53599;DHT22;39485;45.702;11.364;2023-01-16T09:17:53;5.90;99.90
53599;DHT22;39485;45.702;11.364;2023-01-16T09:20:19;5.90;99.90
53599;DHT22;39485;45.702;11.364;2023-01-16T09:22:46;5.90;99.90
53599;DHT22;39485;45.702;11.364;2023-01-16T09:25:12;5.90;99.90
53599;DHT22;39485;45.702;11.364;2023-01-16T09:27:37;5.90;99.90
53599;DHT22;39485;45.702;11.364;2023-01-16T09:30:04;5.90;99.90
53599;DHT22;39485;45.702;11.364;2023-01-16T09:32:30;5.90;99.90
53599;DHT22;39485;45.702;11.364;2023-01-16T09:34:57;6.00;99.90
53599;DHT22;39485;45.702;11.364;2023-01-16T09:37:23;6.00;99.90
53599;DHT22;39485;45.702;11.364;2023-01-16T09:39:48;6.00;99.90
53599;DHT22;39485;45.702;11.364;2023-01-16T09:45:34;6.10;99.90
53599;DHT22;39485;45.702;11.364;2023-01-16T09:48:15;6.10;99.90
53599;DHT22;39485;45.702;11.364;2023-01-16T09:50:51;6.10;99.90
53599;DHT22;39485;45.702;11.364;2023-01-16T09:56:19;6.20;99.90
53599;DHT22;39485;45.702;11.364;2023-01-16T10:01:52;6.20;99.90
53599;DHT22;39485;45.702;11.364;2023-01-16T10:04:20;6.20;99.90
53599;DHT22;39485;45.702;11.364;2023-01-16T10:12:32;6.30;99.90
53599;DHT22;39485;45.702;11.364;2023-01-16T10:15:20;6.30;99.90
53599;DHT22;39485;45.702;11.364;2023-01-16T10:31:16;6.50;99.90
53599;DHT22;39485;45.702;11.364;2023-01-16T10:33:53;6.50;99.90
53599;DHT22;39485;45.702;11.364;2023-01-16T10:36:27;6.50;99.90
53599;DHT22;39485;45.702;11.364;2023-01-16T10:38:56;6.50;99.90
53599;DHT22;39485;45.702;11.364;2023-01-16T10:41:33;6.50;99.90
53599;DHT22;39485;45.702;11.364;2023-01-16T10:47:01;6.70;99.90
53599;DHT22;39485;45.702;11.364;2023-01-16T10:49:50;6.70;99.90
53599;DHT22;39485;45.702;11.364;2023-01-16T10:52:16;6.70;99.90
53599;DHT22;39485;45.702;11.364;2023-01-16T10:54:42;6.70;99.90
53599;DHT22;39485;45.702;11.364;2023-01-16T10:57:16;6.70;99.90
53599;DHT22;39485;45.702;11.364;2023-01-16T10:59:43;6.70;99.90
53599;DHT22;39485;45.702;11.364;2023-01-16T11:02:37;6.70;99.90
53599;DHT22;39485;45.702;11.364;2023-01-16T11:07:48;6.70;99.90
53599;DHT22;39485;45.702;11.364;2023-01-16T11:10:17;6.80;99.90
53599;DHT22;39485;45.702;11.364;2023-01-16T11:12:42;6.80;99.90
53599;DHT22;39485;45.702;11.364;2023-01-16T11:15:27;6.80;99.90
53599;DHT22;39485;45.702;11.364;2023-01-16T11:18:35;6.80;99.90
53599;DHT22;39485;45.702;11.364;2023-01-16T11:21:15;6.80;99.90
53599;DHT22;39485;45.702;11.364;2023-01-16T11:23:43;6.70;99.90
53599;DHT22;39485;45.702;11.364;2023-01-16T11:26:10;6.70;99.90
53599;DHT22;39485;45.702;11.364;2023-01-16T11:28:36;6.60;99.90
53599;DHT22;39485;45.702;11.364;2023-01-16T11:31:11;6.60;99.90
53599;DHT22;39485;45.702;11.364;2023-01-16T11:33:55;6.60;99.90
53599;DHT22;39485;45.702;11.364;2023-01-16T11:36:26;6.60;99.90
53599;DHT22;39485;45.702;11.364;2023-01-16T11:38:53;6.60;99.90
53599;DHT22;39485;45.702;11.364;2023-01-16T11:41:24;6.60;99.90
53599;DHT22;39485;45.702;11.364;2023-01-16T11:44:13;6.60;99.90
53599;DHT22;39485;45.702;11.364;2023-01-16T11:47:16;6.60;99.90
53599;DHT22;39485;45.702;11.364;2023-01-16T11:49:53;6.60;99.90
53599;DHT22;39485;45.702;11.364;2023-01-16T11:52:21;6.60;99.90
53599;DHT22;39485;45.702;11.364;2023-01-16T11:55:04;6.50;99.90
53599;DHT22;39485;45.702;11.364;2023-01-16T11:57:59;6.50;99.90
53599;DHT22;39485;45.702;11.364;2023-01-16T12:10:05;6.50;99.90
53599;DHT22;39485;45.702;11.364;2023-01-16T12:12:15;6.50;99.90
53599;DHT22;39485;45.702;11.364;2023-01-16T12:15:10;6.50;99.90
53599;DHT22;39485;45.702;11.364;2023-01-16T12:18:04;6.50;99.90
53599;DHT22;39485;45.702;11.364;2023-01-16T12:20:45;6.50;99.90
53599;DHT22;39485;45.702;11.364;2023-01-16T12:29:30;6.40;99.90
53599;DHT22;39485;45.702;11.364;2023-01-16T12:32:11;6.40;99.90
53599;DHT22;39485;45.702;11.364;2023-01-16T12:45:56;6.30;99.90
53599;DHT22;39485;45.702;11.364;2023-01-16T12:59:32;6.30;99.90
53599;DHT22;39485;45.702;11.364;2023-01-16T13:02:32;6.30;99.90
53599;DHT22;39485;45.702;11.364;2023-01-16T13:05:09;6.30;99.90
53599;DHT22;39485;45.702;11.364;2023-01-16T13:08:02;6.30;99.90
53599;DHT22;39485;45.702;11.364;2023-01-16T13:10:36;6.20;99.90
53599;DHT22;39485;45.702;11.364;2023-01-16T13:13:26;6.20;99.90
53599;DHT22;39485;45.702;11.364;2023-01-16T13:19:05;6.20;99.90
53599;DHT22;39485;45.702;11.364;2023-01-16T13:24:26;6.20;99.90
53599;DHT22;39485;45.702;11.364;2023-01-16T13:27:23;6.10;99.90
53599;DHT22;39485;45.702;11.364;2023-01-16T13:30:02;6.10;99.90
53599;DHT22;39485;45.702;11.364;2023-01-16T13:32:34;6.10;99.90
53599;DHT22;39485;45.702;11.364;2023-01-16T13:43:08;5.80;99.90
53599;DHT22;39485;45.702;11.364;2023-01-16T13:45:54;5.80;99.90
53599;DHT22;39485;45.702;11.364;2023-01-16T13:48:32;5.80;99.90
53599;DHT22;39485;45.702;11.364;2023-01-16T13:51:06;5.70;99.90
53599;DHT22;39485;45.702;11.364;2023-01-16T13:53:36;5.60;99.90
53599;DHT22;39485;45.702;11.364;2023-01-16T13:56:12;5.60;99.90
53599;DHT22;39485;45.702;11.364;2023-01-16T13:58:45;5.50;99.90
53599;DHT22;39485;45.702;11.364;2023-01-16T14:01:31;5.50;99.90
53599;DHT22;39485;45.702;11.364;2023-01-16T14:06:49;5.50;99.90
53599;DHT22;39485;45.702;11.364;2023-01-16T14:23:02;5.50;99.90
53599;DHT22;39485;45.702;11.364;2023-01-16T14:25:52;5.50;99.90
53599;DHT22;39485;45.702;11.364;2023-01-16T14:28:19;5.50;99.90
53599;DHT22;39485;45.702;11.364;2023-01-16T14:30:45;5.50;99.90
53599;DHT22;39485;45.702;11.364;2023-01-16T14:33:16;5.50;99.90
53599;DHT22;39485;45.702;11.364;2023-01-16T14:35:49;5.40;99.90
53599;DHT22;39485;45.702;11.364;2023-01-16T14:38:20;5.40;99.90
53599;DHT22;39485;45.702;11.364;2023-01-16T14:41:03;5.30;99.90
53599;DHT22;39485;45.702;11.364;2023-01-16T14:44:14;5.30;99.90
53599;DHT22;39485;45.702;11.364;2023-01-16T14:47:23;5.30;99.90
53599;DHT22;39485;45.702;11.364;2023-01-16T14:50:09;5.30;99.90
53599;DHT22;39485;45.702;11.364;2023-01-16T14:53:12;5.30;99.90
53599;DHT22;39485;45.702;11.364;2023-01-16T14:56:07;5.30;99.90
53599;DHT22;39485;45.702;11.364;2023-01-16T14:58:44;5.30;99.90
53599;DHT22;39485;45.702;11.364;2023-01-16T15:01:26;5.30;99.90
53599;DHT22;39485;45.702;11.364;2023-01-16T15:04:14;5.30;99.90
53599;DHT22;39485;45.702;11.364;2023-01-16T15:06:44;5.20;99.90
53599;DHT22;39485;45.702;11.364;2023-01-16T15:09:20;5.20;99.90
53599;DHT22;39485;45.702;11.364;2023-01-16T15:12:02;5.20;99.90
53599;DHT22;39485;45.702;11.364;2023-01-16T15:14:28;5.20;99.90
53599;DHT22;39485;45.702;11.364;2023-01-16T15:20:01;5.20;99.90
53599;DHT22;39485;45.702;11.364;2023-01-16T15:22:52;5.20;99.90
53599;DHT22;39485;45.702;11.364;2023-01-16T15:30:40;5.10;99.90
53599;DHT22;39485;45.702;11.364;2023-01-16T15:33:22;5.00;99.90
53599;DHT22;39485;45.702;11.364;2023-01-16T15:38:47;4.80;99.90
53599;DHT22;39485;45.702;11.364;2023-01-16T15:41:14;4.70;99.90
53599;DHT22;39485;45.702;11.364;2023-01-16T15:43:42;4.60;99.90
53599;DHT22;39485;45.702;11.364;2023-01-16T15:49:34;4.40;99.90
53599;DHT22;39485;45.702;11.364;2023-01-16T15:52:02;4.30;99.90
53599;DHT22;39485;45.702;11.364;2023-01-16T15:54:28;4.20;99.90
53599;DHT22;39485;45.702;11.364;2023-01-16T15:56:53;4.10;99.90
53599;DHT22;39485;45.702;11.364;2023-01-16T15:59:32;4.10;99.90
53599;DHT22;39485;45.702;11.364;2023-01-16T16:02:24;4.00;99.90
53599;DHT22;39485;45.702;11.364;2023-01-16T16:05:02;3.90;99.90
53599;DHT22;39485;45.702;11.364;2023-01-16T16:07:28;3.90;99.90
53599;DHT22;39485;45.702;11.364;2023-01-16T16:09:58;3.90;99.90
53599;DHT22;39485;45.702;11.364;2023-01-16T16:12:25;3.90;99.90
53599;DHT22;39485;45.702;11.364;2023-01-16T16:15:16;3.80;99.90
53599;DHT22;39485;45.702;11.364;2023-01-16T16:18:07;3.80;99.90
53599;DHT22;39485;45.702;11.364;2023-01-16T16:20:39;3.70;99.90
53599;DHT22;39485;45.702;11.364;2023-01-16T16:25:48;3.70;99.90
53599;DHT22;39485;45.702;11.364;2023-01-16T16:28:34;3.60;99.90
53599;DHT22;39485;45.702;11.364;2023-01-16T16:31:22;3.60;99.90
53599;DHT22;39485;45.702;11.364;2023-01-16T16:36:23;3.50;99.90
53599;DHT22;39485;45.702;11.364;2023-01-16T16:38:50;3.50;99.90
53599;DHT22;39485;45.702;11.364;2023-01-16T16:41:44;3.40;99.90
53599;DHT22;39485;45.702;11.364;2023-01-16T16:47:02;3.40;99.90
53599;DHT22;39485;45.702;11.364;2023-01-16T16:49:30;3.40;99.90
53599;DHT22;39485;45.702;11.364;2023-01-16T16:52:20;3.40;99.90
53599;DHT22;39485;45.702;11.364;2023-01-16T16:54:52;3.40;99.90
53599;DHT22;39485;45.702;11.364;2023-01-16T16:57:19;3.40;99.90
53599;DHT22;39485;45.702;11.364;2023-01-16T16:59:46;3.40;99.90
53599;DHT22;39485;45.702;11.364;2023-01-16T17:02:13;3.40;99.90
53599;DHT22;39485;45.702;11.364;2023-01-16T17:04:38;3.40;99.90
53599;DHT22;39485;45.702;11.364;2023-01-16T17:07:04;3.40;99.90
53599;DHT22;39485;45.702;11.364;2023-01-16T17:09:31;3.40;99.90
53599;DHT22;39485;45.702;11.364;2023-01-16T17:12:16;3.40;99.90
53599;DHT22;39485;45.702;11.364;2023-01-16T17:14:43;3.40;99.90
53599;DHT22;39485;45.702;11.364;2023-01-16T17:17:13;3.40;99.90
53599;DHT22;39485;45.702;11.364;2023-01-16T17:19:40;3.40;99.90
53599;DHT22;39485;45.702;11.364;2023-01-16T17:22:06;3.40;99.90
53599;DHT22;39485;45.702;11.364;2023-01-16T17:24:32;3.40;99.90
53599;DHT22;39485;45.702;11.364;2023-01-16T17:26:57;3.40;99.90
53599;DHT22;39485;45.702;11.364;2023-01-16T17:29:25;3.30;99.90
53599;DHT22;39485;45.702;11.364;2023-01-16T17:31:50;3.30;99.90
53599;DHT22;39485;45.702;11.364;2023-01-16T17:34:18;3.30;99.90
53599;DHT22;39485;45.702;11.364;2023-01-16T17:36:45;3.30;99.90
53599;DHT22;39485;45.702;11.364;2023-01-16T17:39:20;3.20;99.90
53599;DHT22;39485;45.702;11.364;2023-01-16T17:41:46;3.20;99.90
53599;DHT22;39485;45.702;11.364;2023-01-16T17:44:17;3.10;99.90
53599;DHT22;39485;45.702;11.364;2023-01-16T17:47:01;3.10;99.90
53599;DHT22;39485;45.702;11.364;2023-01-16T17:49:27;3.10;99.90
53599;DHT22;39485;45.702;11.364;2023-01-16T17:51:53;3.10;99.90
53599;DHT22;39485;45.702;11.364;2023-01-16T17:54:19;3.10;99.90
53599;DHT22;39485;45.702;11.364;2023-01-16T17:57:03;3.10;99.90
53599;DHT22;39485;45.702;11.364;2023-01-16T17:59:29;3.10;99.90
53599;DHT22;39485;45.702;11.364;2023-01-16T18:01:55;3.10;99.90
53599;DHT22;39485;45.702;11.364;2023-01-16T18:04:21;3.10;99.90
53599;DHT22;39485;45.702;11.364;2023-01-16T18:06:47;3.10;99.90
53599;DHT22;39485;45.702;11.364;2023-01-16T18:09:13;3.10;99.90
53599;DHT22;39485;45.702;11.364;2023-01-16T18:11:42;3.10;99.90
53599;DHT22;39485;45.702;11.364;2023-01-16T18:14:27;3.10;99.90
53599;DHT22;39485;45.702;11.364;2023-01-16T18:17:16;3.20;99.90
53599;DHT22;39485;45.702;11.364;2023-01-16T18:19:56;3.20;99.90
53599;DHT22;39485;45.702;11.364;2023-01-16T18:22:25;3.20;99.90
53599;DHT22;39485;45.702;11.364;2023-01-16T18:24:51;3.20;99.90
53599;DHT22;39485;45.702;11.364;2023-01-16T18:27:17;3.20;99.90
53599;DHT22;39485;45.702;11.364;2023-01-16T18:29:44;3.20;99.90
53599;DHT22;39485;45.702;11.364;2023-01-16T18:32:11;3.30;99.90
53599;DHT22;39485;45.702;11.364;2023-01-16T18:34:54;3.30;99.90
53599;DHT22;39485;45.702;11.364;2023-01-16T18:37:22;3.30;99.90
53599;DHT22;39485;45.702;11.364;2023-01-16T18:39:47;3.30;99.90
53599;DHT22;39485;45.702;11.364;2023-01-16T18:42:32;3.30;99.90
53599;DHT22;39485;45.702;11.364;2023-01-16T18:45:16;3.40;99.90
53599;DHT22;39485;45.702;11.364;2023-01-16T18:48:01;3.40;99.90